sensor_id;sensor_type;location;lat;lon;timestamp;P1;durP1;ratioP1;P2;durP2;ratioP2
32393;SDS011;18853;45.426;9.206;2023-12-07T00:01:33;62.40;;;43.15;;
32393;SDS011;18853;45.426;9.206;2023-12-07T00:04:02;61.20;;;44.80;;
32393;SDS011;18853;45.426;9.206;2023-12-07T00:06:28;69.03;;;45.17;;
32393;SDS011;18853;45.426;9.206;2023-12-07T00:08:53;61.80;;;44.67;;
32393;SDS011;18853;45.426;9.206;2023-12-07T00:11:19;60.90;;;43.45;;
32393;SDS011;18853;45.426;9.206;2023-12-07T00:13:48;67.50;;;44.25;;
32393;SDS011;18853;45.426;9.206;2023-12-07T00:16:13;59.75;;;43.15;;
32393;SDS011;18853;45.426;9.206;2023-12-07T00:18:39;57.10;;;41.25;;
32393;SDS011;18853;45.426;9.206;2023-12-07T00:21:05;61.80;;;42.15;;
32393;SDS011;18853;45.426;9.206;2023-12-07T00:23:33;58.95;;;40.90;;
32393;SDS011;18853;45.426;9.206;2023-12-07T00:25:58;56.95;;;40.92;;
32393;SDS011;18853;45.426;9.206;2023-12-07T00:28:24;59.45;;;41.60;;
32393;SDS011;18853;45.426;9.206;2023-12-07T00:30:49;53.97;;;39.67;;
32393;SDS011;18853;45.426;9.206;2023-12-07T00:33:15;54.53;;;39.00;;
32393;SDS011;18853;45.426;9.206;2023-12-07T00:35:42;58.40;;;40.88;;
32393;SDS011;18853;45.426;9.206;2023-12-07T00:38:07;58.85;;;39.30;;
32393;SDS011;18853;45.426;9.206;2023-12-07T00:40:33;56.63;;;39.88;;
32393;SDS011;18853;45.426;9.206;2023-12-07T00:43:02;60.65;;;41.28;;
32393;SDS011;18853;45.426;9.206;2023-12-07T00:45:28;59.10;;;40.20;;
32393;SDS011;18853;45.426;9.206;2023-12-07T00:47:54;54.20;;;38.72;;
32393;SDS011;18853;45.426;9.206;2023-12-07T00:50:19;57.42;;;40.90;;
32393;SDS011;18853;45.426;9.206;2023-12-07T00:52:45;54.03;;;39.85;;
32393;SDS011;18853;45.426;9.206;2023-12-07T00:55:10;54.17;;;39.22;;
32393;SDS011;18853;45.426;9.206;2023-12-07T00:57:36;52.85;;;38.92;;
32393;SDS011;18853;45.426;9.206;2023-12-07T01:00:02;52.42;;;39.33;;
32393;SDS011;18853;45.426;9.206;2023-12-07T01:02:29;54.22;;;39.25;;
32393;SDS011;18853;45.426;9.206;2023-12-07T01:04:54;56.10;;;40.00;;
32393;SDS011;18853;45.426;9.206;2023-12-07T01:07:20;54.28;;;38.42;;
32393;SDS011;18853;45.426;9.206;2023-12-07T01:09:46;53.47;;;38.92;;
32393;SDS011;18853;45.426;9.206;2023-12-07T01:12:12;55.30;;;39.72;;
32393;SDS011;18853;45.426;9.206;2023-12-07T01:14:37;56.58;;;39.22;;
32393;SDS011;18853;45.426;9.206;2023-12-07T01:17:03;52.97;;;38.88;;
32393;SDS011;18853;45.426;9.206;2023-12-07T01:19:29;55.75;;;39.10;;
32393;SDS011;18853;45.426;9.206;2023-12-07T01:21:54;56.13;;;39.50;;
32393;SDS011;18853;45.426;9.206;2023-12-07T01:24:20;54.75;;;39.55;;
32393;SDS011;18853;45.426;9.206;2023-12-07T01:26:46;56.17;;;40.13;;
32393;SDS011;18853;45.426;9.206;2023-12-07T01:29:11;54.60;;;39.78;;
32393;SDS011;18853;45.426;9.206;2023-12-07T01:31:38;59.90;;;41.20;;
32393;SDS011;18853;45.426;9.206;2023-12-07T01:34:05;58.00;;;42.15;;
32393;SDS011;18853;45.426;9.206;2023-12-07T01:36:30;62.15;;;42.28;;
32393;SDS011;18853;45.426;9.206;2023-12-07T01:38:56;56.40;;;40.65;;
32393;SDS011;18853;45.426;9.206;2023-12-07T01:41:22;55.97;;;41.65;;
32393;SDS011;18853;45.426;9.206;2023-12-07T01:43:48;58.30;;;43.00;;
32393;SDS011;18853;45.426;9.206;2023-12-07T01:46:15;62.13;;;43.20;;
32393;SDS011;18853;45.426;9.206;2023-12-07T01:48:42;62.08;;;43.10;;
32393;SDS011;18853;45.426;9.206;2023-12-07T01:51:08;60.25;;;42.80;;
32393;SDS011;18853;45.426;9.206;2023-12-07T01:53:36;58.95;;;41.70;;
32393;SDS011;18853;45.426;9.206;2023-12-07T01:56:04;62.83;;;43.03;;
32393;SDS011;18853;45.426;9.206;2023-12-07T01:58:30;62.92;;;43.00;;
32393;SDS011;18853;45.426;9.206;2023-12-07T02:00:56;60.55;;;42.03;;
32393;SDS011;18853;45.426;9.206;2023-12-07T02:03:22;57.97;;;42.53;;
32393;SDS011;18853;45.426;9.206;2023-12-07T02:05:49;62.08;;;42.67;;
32393;SDS011;18853;45.426;9.206;2023-12-07T02:08:16;63.30;;;44.28;;
32393;SDS011;18853;45.426;9.206;2023-12-07T02:10:41;60.90;;;42.55;;
32393;SDS011;18853;45.426;9.206;2023-12-07T02:13:07;62.13;;;43.28;;
32393;SDS011;18853;45.426;9.206;2023-12-07T02:15:33;62.97;;;43.83;;
32393;SDS011;18853;45.426;9.206;2023-12-07T02:18:03;62.53;;;43.25;;
32393;SDS011;18853;45.426;9.206;2023-12-07T02:23:43;55.42;;;40.33;;
32393;SDS011;18853;45.426;9.206;2023-12-07T02:26:11;51.60;;;38.03;;
32393;SDS011;18853;45.426;9.206;2023-12-07T02:28:43;57.38;;;41.35;;
32393;SDS011;18853;45.426;9.206;2023-12-07T02:31:09;56.78;;;40.10;;
32393;SDS011;18853;45.426;9.206;2023-12-07T02:33:34;56.97;;;40.35;;
32393;SDS011;18853;45.426;9.206;2023-12-07T02:36:00;60.05;;;41.20;;
32393;SDS011;18853;45.426;9.206;2023-12-07T02:38:26;58.25;;;41.78;;
32393;SDS011;18853;45.426;9.206;2023-12-07T02:40:53;55.50;;;39.90;;
32393;SDS011;18853;45.426;9.206;2023-12-07T02:43:20;55.42;;;39.80;;
32393;SDS011;18853;45.426;9.206;2023-12-07T02:45:47;54.83;;;39.53;;
32393;SDS011;18853;45.426;9.206;2023-12-07T02:48:13;54.95;;;39.88;;
32393;SDS011;18853;45.426;9.206;2023-12-07T02:50:39;57.88;;;40.67;;
32393;SDS011;18853;45.426;9.206;2023-12-07T02:53:04;54.03;;;39.03;;
32393;SDS011;18853;45.426;9.206;2023-12-07T02:55:30;53.80;;;39.30;;
32393;SDS011;18853;45.426;9.206;2023-12-07T02:57:56;53.97;;;38.72;;
32393;SDS011;18853;45.426;9.206;2023-12-07T03:00:21;58.13;;;40.67;;
32393;SDS011;18853;45.426;9.206;2023-12-07T03:02:47;56.85;;;40.83;;
32393;SDS011;18853;45.426;9.206;2023-12-07T03:05:13;53.30;;;39.38;;
32393;SDS011;18853;45.426;9.206;2023-12-07T03:07:39;59.10;;;41.22;;
32393;SDS011;18853;45.426;9.206;2023-12-07T03:10:04;53.85;;;36.75;;
32393;SDS011;18853;45.426;9.206;2023-12-07T03:12:30;55.72;;;40.85;;
32393;SDS011;18853;45.426;9.206;2023-12-07T03:14:56;56.20;;;40.42;;
32393;SDS011;18853;45.426;9.206;2023-12-07T03:17:22;53.92;;;38.50;;
32393;SDS011;18853;45.426;9.206;2023-12-07T03:19:47;53.28;;;37.75;;
32393;SDS011;18853;45.426;9.206;2023-12-07T03:22:13;49.55;;;36.53;;
32393;SDS011;18853;45.426;9.206;2023-12-07T03:24:39;49.35;;;36.58;;
32393;SDS011;18853;45.426;9.206;2023-12-07T03:27:08;54.40;;;37.40;;
32393;SDS011;18853;45.426;9.206;2023-12-07T03:29:34;50.60;;;36.20;;
32393;SDS011;18853;45.426;9.206;2023-12-07T03:32:00;52.95;;;36.78;;
32393;SDS011;18853;45.426;9.206;2023-12-07T03:34:25;47.05;;;34.38;;
32393;SDS011;18853;45.426;9.206;2023-12-07T03:36:51;47.90;;;34.50;;
32393;SDS011;18853;45.426;9.206;2023-12-07T03:39:17;47.53;;;33.97;;
32393;SDS011;18853;45.426;9.206;2023-12-07T03:41:50;45.67;;;33.47;;
32393;SDS011;18853;45.426;9.206;2023-12-07T03:44:16;44.33;;;33.65;;
32393;SDS011;18853;45.426;9.206;2023-12-07T03:46:41;48.25;;;33.80;;
32393;SDS011;18853;45.426;9.206;2023-12-07T03:49:07;44.85;;;33.33;;
32393;SDS011;18853;45.426;9.206;2023-12-07T03:51:32;44.95;;;34.28;;
32393;SDS011;18853;45.426;9.206;2023-12-07T03:53:59;49.67;;;35.33;;
32393;SDS011;18853;45.426;9.206;2023-12-07T03:56:25;48.33;;;34.70;;
32393;SDS011;18853;45.426;9.206;2023-12-07T03:58:54;48.35;;;35.03;;
32393;SDS011;18853;45.426;9.206;2023-12-07T04:01:24;49.28;;;35.35;;
32393;SDS011;18853;45.426;9.206;2023-12-07T04:03:50;46.38;;;34.10;;
32393;SDS011;18853;45.426;9.206;2023-12-07T04:06:17;44.67;;;35.85;;
32393;SDS011;18853;45.426;9.206;2023-12-07T04:08:43;48.60;;;35.72;;
32393;SDS011;18853;45.426;9.206;2023-12-07T04:11:09;49.17;;;35.72;;
32393;SDS011;18853;45.426;9.206;2023-12-07T04:13:35;50.30;;;37.35;;
32393;SDS011;18853;45.426;9.206;2023-12-07T04:16:01;51.40;;;37.45;;
32393;SDS011;18853;45.426;9.206;2023-12-07T04:18:28;49.67;;;36.50;;
32393;SDS011;18853;45.426;9.206;2023-12-07T04:20:53;50.33;;;36.75;;
32393;SDS011;18853;45.426;9.206;2023-12-07T04:23:19;53.67;;;38.50;;
32393;SDS011;18853;45.426;9.206;2023-12-07T04:25:45;46.50;;;35.85;;
32393;SDS011;18853;45.426;9.206;2023-12-07T04:28:10;50.22;;;38.10;;
32393;SDS011;18853;45.426;9.206;2023-12-07T04:30:36;51.30;;;36.25;;
32393;SDS011;18853;45.426;9.206;2023-12-07T04:33:02;49.65;;;37.03;;
32393;SDS011;18853;45.426;9.206;2023-12-07T04:35:28;50.00;;;37.60;;
32393;SDS011;18853;45.426;9.206;2023-12-07T04:37:54;50.83;;;38.80;;
32393;SDS011;18853;45.426;9.206;2023-12-07T04:40:19;50.67;;;39.25;;
32393;SDS011;18853;45.426;9.206;2023-12-07T04:42:45;50.83;;;37.10;;
32393;SDS011;18853;45.426;9.206;2023-12-07T04:45:10;49.83;;;36.55;;
32393;SDS011;18853;45.426;9.206;2023-12-07T04:47:37;44.42;;;34.22;;
32393;SDS011;18853;45.426;9.206;2023-12-07T04:50:02;48.53;;;36.75;;
32393;SDS011;18853;45.426;9.206;2023-12-07T04:52:28;51.33;;;36.55;;
32393;SDS011;18853;45.426;9.206;2023-12-07T04:54:54;50.03;;;36.80;;
32393;SDS011;18853;45.426;9.206;2023-12-07T04:57:19;50.38;;;36.00;;
32393;SDS011;18853;45.426;9.206;2023-12-07T04:59:45;48.13;;;35.38;;
32393;SDS011;18853;45.426;9.206;2023-12-07T05:02:15;48.45;;;37.22;;
32393;SDS011;18853;45.426;9.206;2023-12-07T05:04:44;55.40;;;37.13;;
32393;SDS011;18853;45.426;9.206;2023-12-07T05:07:10;51.25;;;37.10;;
32393;SDS011;18853;45.426;9.206;2023-12-07T05:09:36;49.00;;;37.28;;
32393;SDS011;18853;45.426;9.206;2023-12-07T05:12:03;52.25;;;38.72;;
32393;SDS011;18853;45.426;9.206;2023-12-07T05:14:30;52.10;;;39.55;;
32393;SDS011;18853;45.426;9.206;2023-12-07T05:16:56;51.60;;;37.97;;
32393;SDS011;18853;45.426;9.206;2023-12-07T05:19:25;53.42;;;38.63;;
32393;SDS011;18853;45.426;9.206;2023-12-07T05:21:51;56.85;;;38.97;;
32393;SDS011;18853;45.426;9.206;2023-12-07T05:24:17;57.90;;;39.40;;
32393;SDS011;18853;45.426;9.206;2023-12-07T05:26:43;51.85;;;37.72;;
32393;SDS011;18853;45.426;9.206;2023-12-07T05:29:11;50.55;;;35.40;;
32393;SDS011;18853;45.426;9.206;2023-12-07T05:31:38;45.65;;;34.58;;
32393;SDS011;18853;45.426;9.206;2023-12-07T05:34:04;41.55;;;32.45;;
32393;SDS011;18853;45.426;9.206;2023-12-07T05:36:30;45.97;;;32.45;;
32393;SDS011;18853;45.426;9.206;2023-12-07T05:38:56;49.03;;;33.85;;
32393;SDS011;18853;45.426;9.206;2023-12-07T05:41:22;43.42;;;33.08;;
32393;SDS011;18853;45.426;9.206;2023-12-07T05:43:47;47.42;;;33.70;;
32393;SDS011;18853;45.426;9.206;2023-12-07T05:46:13;43.60;;;32.63;;
32393;SDS011;18853;45.426;9.206;2023-12-07T05:48:39;42.10;;;32.08;;
32393;SDS011;18853;45.426;9.206;2023-12-07T05:51:05;40.17;;;30.75;;
32393;SDS011;18853;45.426;9.206;2023-12-07T05:53:31;41.58;;;31.52;;
32393;SDS011;18853;45.426;9.206;2023-12-07T05:55:58;43.30;;;32.13;;
32393;SDS011;18853;45.426;9.206;2023-12-07T05:58:23;45.45;;;34.17;;
32393;SDS011;18853;45.426;9.206;2023-12-07T06:00:49;50.45;;;35.38;;
32393;SDS011;18853;45.426;9.206;2023-12-07T06:03:15;50.72;;;36.08;;
32393;SDS011;18853;45.426;9.206;2023-12-07T06:05:41;43.50;;;34.05;;
32393;SDS011;18853;45.426;9.206;2023-12-07T06:08:07;45.58;;;33.10;;
32393;SDS011;18853;45.426;9.206;2023-12-07T06:10:33;44.30;;;32.67;;
32393;SDS011;18853;45.426;9.206;2023-12-07T06:12:59;44.08;;;33.03;;
32393;SDS011;18853;45.426;9.206;2023-12-07T06:15:26;43.22;;;32.35;;
32393;SDS011;18853;45.426;9.206;2023-12-07T06:17:52;44.83;;;32.58;;
32393;SDS011;18853;45.426;9.206;2023-12-07T06:20:19;41.70;;;31.50;;
32393;SDS011;18853;45.426;9.206;2023-12-07T06:22:45;40.35;;;30.73;;
32393;SDS011;18853;45.426;9.206;2023-12-07T06:25:10;41.40;;;30.33;;
32393;SDS011;18853;45.426;9.206;2023-12-07T06:27:36;38.53;;;29.13;;
32393;SDS011;18853;45.426;9.206;2023-12-07T06:30:03;40.80;;;30.98;;
32393;SDS011;18853;45.426;9.206;2023-12-07T06:32:30;40.20;;;31.13;;
32393;SDS011;18853;45.426;9.206;2023-12-07T06:34:56;44.80;;;32.75;;
32393;SDS011;18853;45.426;9.206;2023-12-07T06:37:22;41.03;;;32.88;;
32393;SDS011;18853;45.426;9.206;2023-12-07T06:39:48;42.00;;;33.45;;
32393;SDS011;18853;45.426;9.206;2023-12-07T06:42:14;45.88;;;33.78;;
32393;SDS011;18853;45.426;9.206;2023-12-07T06:44:40;49.10;;;35.70;;
32393;SDS011;18853;45.426;9.206;2023-12-07T06:47:08;47.10;;;32.85;;
32393;SDS011;18853;45.426;9.206;2023-12-07T06:49:34;43.13;;;32.72;;
32393;SDS011;18853;45.426;9.206;2023-12-07T06:52:01;42.30;;;30.73;;
32393;SDS011;18853;45.426;9.206;2023-12-07T06:54:26;41.25;;;30.77;;
32393;SDS011;18853;45.426;9.206;2023-12-07T06:56:52;40.13;;;31.27;;
32393;SDS011;18853;45.426;9.206;2023-12-07T06:59:18;42.22;;;29.80;;
32393;SDS011;18853;45.426;9.206;2023-12-07T07:01:45;40.35;;;30.08;;
32393;SDS011;18853;45.426;9.206;2023-12-07T07:04:10;38.70;;;29.42;;
32393;SDS011;18853;45.426;9.206;2023-12-07T07:06:36;41.97;;;31.45;;
32393;SDS011;18853;45.426;9.206;2023-12-07T07:09:03;43.08;;;31.15;;
32393;SDS011;18853;45.426;9.206;2023-12-07T07:11:30;39.38;;;29.85;;
32393;SDS011;18853;45.426;9.206;2023-12-07T07:13:55;41.47;;;30.77;;
32393;SDS011;18853;45.426;9.206;2023-12-07T07:16:21;42.17;;;31.60;;
32393;SDS011;18853;45.426;9.206;2023-12-07T07:18:46;39.58;;;29.88;;
32393;SDS011;18853;45.426;9.206;2023-12-07T07:21:12;45.00;;;32.30;;
32393;SDS011;18853;45.426;9.206;2023-12-07T07:23:38;47.97;;;34.67;;
32393;SDS011;18853;45.426;9.206;2023-12-07T07:26:03;43.85;;;32.85;;
32393;SDS011;18853;45.426;9.206;2023-12-07T07:28:29;43.40;;;33.25;;
32393;SDS011;18853;45.426;9.206;2023-12-07T07:30:55;43.63;;;32.55;;
32393;SDS011;18853;45.426;9.206;2023-12-07T07:33:20;44.38;;;32.47;;
32393;SDS011;18853;45.426;9.206;2023-12-07T07:35:46;90.63;;;52.83;;
32393;SDS011;18853;45.426;9.206;2023-12-07T07:38:12;46.13;;;33.50;;
32393;SDS011;18853;45.426;9.206;2023-12-07T07:40:39;43.72;;;32.92;;
32393;SDS011;18853;45.426;9.206;2023-12-07T07:43:05;48.45;;;32.92;;
32393;SDS011;18853;45.426;9.206;2023-12-07T07:45:30;46.00;;;32.08;;
32393;SDS011;18853;45.426;9.206;2023-12-07T07:47:56;41.95;;;32.72;;
32393;SDS011;18853;45.426;9.206;2023-12-07T07:50:22;44.08;;;32.33;;
32393;SDS011;18853;45.426;9.206;2023-12-07T07:52:47;46.67;;;33.67;;
32393;SDS011;18853;45.426;9.206;2023-12-07T07:55:13;44.85;;;32.15;;
32393;SDS011;18853;45.426;9.206;2023-12-07T07:57:39;42.17;;;31.40;;
32393;SDS011;18853;45.426;9.206;2023-12-07T08:00:04;42.25;;;31.20;;
32393;SDS011;18853;45.426;9.206;2023-12-07T08:02:33;43.28;;;31.50;;
32393;SDS011;18853;45.426;9.206;2023-12-07T08:04:59;43.38;;;32.63;;
32393;SDS011;18853;45.426;9.206;2023-12-07T08:07:24;44.95;;;32.17;;
32393;SDS011;18853;45.426;9.206;2023-12-07T08:09:50;42.80;;;31.52;;
32393;SDS011;18853;45.426;9.206;2023-12-07T08:12:16;41.67;;;31.25;;
32393;SDS011;18853;45.426;9.206;2023-12-07T08:14:41;43.80;;;31.67;;
32393;SDS011;18853;45.426;9.206;2023-12-07T08:17:08;48.22;;;33.88;;
32393;SDS011;18853;45.426;9.206;2023-12-07T08:19:34;41.63;;;30.80;;
32393;SDS011;18853;45.426;9.206;2023-12-07T08:22:00;48.15;;;33.05;;
32393;SDS011;18853;45.426;9.206;2023-12-07T08:24:25;42.72;;;32.03;;
32393;SDS011;18853;45.426;9.206;2023-12-07T08:26:51;50.08;;;35.00;;
32393;SDS011;18853;45.426;9.206;2023-12-07T08:29:17;46.78;;;32.88;;
32393;SDS011;18853;45.426;9.206;2023-12-07T08:31:42;44.70;;;32.10;;
32393;SDS011;18853;45.426;9.206;2023-12-07T08:34:08;43.60;;;32.75;;
32393;SDS011;18853;45.426;9.206;2023-12-07T08:36:33;43.90;;;33.05;;
32393;SDS011;18853;45.426;9.206;2023-12-07T08:38:59;44.97;;;32.17;;
32393;SDS011;18853;45.426;9.206;2023-12-07T08:41:24;41.78;;;30.65;;
32393;SDS011;18853;45.426;9.206;2023-12-07T08:43:50;43.25;;;31.63;;
32393;SDS011;18853;45.426;9.206;2023-12-07T08:46:16;52.15;;;35.15;;
32393;SDS011;18853;45.426;9.206;2023-12-07T08:48:41;42.80;;;32.30;;
32393;SDS011;18853;45.426;9.206;2023-12-07T08:51:08;44.63;;;32.95;;
32393;SDS011;18853;45.426;9.206;2023-12-07T08:53:34;45.03;;;32.65;;
32393;SDS011;18853;45.426;9.206;2023-12-07T08:56:00;45.90;;;34.25;;
32393;SDS011;18853;45.426;9.206;2023-12-07T08:58:27;42.92;;;32.85;;
32393;SDS011;18853;45.426;9.206;2023-12-07T09:00:52;42.25;;;32.03;;
32393;SDS011;18853;45.426;9.206;2023-12-07T09:03:18;44.00;;;32.58;;
32393;SDS011;18853;45.426;9.206;2023-12-07T09:05:44;41.58;;;31.95;;
32393;SDS011;18853;45.426;9.206;2023-12-07T09:08:09;44.80;;;33.13;;
32393;SDS011;18853;45.426;9.206;2023-12-07T09:10:35;43.70;;;34.08;;
32393;SDS011;18853;45.426;9.206;2023-12-07T09:13:01;45.65;;;33.88;;
32393;SDS011;18853;45.426;9.206;2023-12-07T09:15:27;46.53;;;34.15;;
32393;SDS011;18853;45.426;9.206;2023-12-07T09:17:52;47.55;;;35.13;;
32393;SDS011;18853;45.426;9.206;2023-12-07T09:20:18;46.15;;;34.67;;
32393;SDS011;18853;45.426;9.206;2023-12-07T09:22:44;50.17;;;36.25;;
32393;SDS011;18853;45.426;9.206;2023-12-07T09:25:11;46.67;;;36.28;;
32393;SDS011;18853;45.426;9.206;2023-12-07T09:27:38;49.70;;;37.97;;
32393;SDS011;18853;45.426;9.206;2023-12-07T09:30:07;51.65;;;35.97;;
32393;SDS011;18853;45.426;9.206;2023-12-07T09:32:36;52.15;;;37.47;;
32393;SDS011;18853;45.426;9.206;2023-12-07T09:35:06;53.88;;;37.72;;
32393;SDS011;18853;45.426;9.206;2023-12-07T09:37:35;50.88;;;38.22;;
32393;SDS011;18853;45.426;9.206;2023-12-07T09:40:02;52.22;;;36.90;;
32393;SDS011;18853;45.426;9.206;2023-12-07T09:42:30;47.15;;;35.90;;
32393;SDS011;18853;45.426;9.206;2023-12-07T09:44:56;50.53;;;37.35;;
32393;SDS011;18853;45.426;9.206;2023-12-07T09:47:22;50.05;;;37.08;;
32393;SDS011;18853;45.426;9.206;2023-12-07T09:49:47;43.67;;;33.72;;
32393;SDS011;18853;45.426;9.206;2023-12-07T09:52:13;45.63;;;35.00;;
32393;SDS011;18853;45.426;9.206;2023-12-07T09:54:40;47.97;;;36.10;;
32393;SDS011;18853;45.426;9.206;2023-12-07T09:57:07;44.50;;;33.97;;
32393;SDS011;18853;45.426;9.206;2023-12-07T09:59:35;45.70;;;34.15;;
32393;SDS011;18853;45.426;9.206;2023-12-07T10:02:01;43.95;;;33.15;;
32393;SDS011;18853;45.426;9.206;2023-12-07T10:04:27;38.40;;;31.70;;
32393;SDS011;18853;45.426;9.206;2023-12-07T10:06:53;42.22;;;32.80;;
32393;SDS011;18853;45.426;9.206;2023-12-07T10:09:19;43.85;;;33.15;;
32393;SDS011;18853;45.426;9.206;2023-12-07T10:11:46;39.83;;;32.78;;
32393;SDS011;18853;45.426;9.206;2023-12-07T10:14:12;43.28;;;32.13;;
32393;SDS011;18853;45.426;9.206;2023-12-07T10:16:38;43.95;;;34.40;;
32393;SDS011;18853;45.426;9.206;2023-12-07T10:19:16;47.20;;;33.38;;
32393;SDS011;18853;45.426;9.206;2023-12-07T10:21:53;47.38;;;34.30;;
32393;SDS011;18853;45.426;9.206;2023-12-07T10:24:19;45.95;;;32.97;;
32393;SDS011;18853;45.426;9.206;2023-12-07T10:26:48;42.40;;;32.38;;
32393;SDS011;18853;45.426;9.206;2023-12-07T10:29:14;44.78;;;32.47;;
32393;SDS011;18853;45.426;9.206;2023-12-07T10:31:43;46.47;;;33.17;;
32393;SDS011;18853;45.426;9.206;2023-12-07T10:34:09;42.15;;;32.15;;
32393;SDS011;18853;45.426;9.206;2023-12-07T10:36:35;42.00;;;31.98;;
32393;SDS011;18853;45.426;9.206;2023-12-07T10:39:01;42.92;;;31.30;;
32393;SDS011;18853;45.426;9.206;2023-12-07T10:41:27;40.92;;;31.15;;
32393;SDS011;18853;45.426;9.206;2023-12-07T10:44:00;50.90;;;35.45;;
32393;SDS011;18853;45.426;9.206;2023-12-07T10:46:26;46.47;;;32.58;;
32393;SDS011;18853;45.426;9.206;2023-12-07T10:48:59;45.13;;;32.03;;
32393;SDS011;18853;45.426;9.206;2023-12-07T10:51:41;43.90;;;31.98;;
32393;SDS011;18853;45.426;9.206;2023-12-07T10:54:11;34.90;;;26.52;;
32393;SDS011;18853;45.426;9.206;2023-12-07T10:56:45;28.48;;;21.50;;
32393;SDS011;18853;45.426;9.206;2023-12-07T10:59:12;29.58;;;22.05;;
32393;SDS011;18853;45.426;9.206;2023-12-07T11:01:38;29.25;;;21.90;;
32393;SDS011;18853;45.426;9.206;2023-12-07T11:04:05;33.00;;;22.85;;
32393;SDS011;18853;45.426;9.206;2023-12-07T11:06:35;31.48;;;24.23;;
32393;SDS011;18853;45.426;9.206;2023-12-07T11:09:01;37.50;;;25.13;;
32393;SDS011;18853;45.426;9.206;2023-12-07T11:11:36;31.95;;;24.80;;
32393;SDS011;18853;45.426;9.206;2023-12-07T11:14:08;46.70;;;29.83;;
32393;SDS011;18853;45.426;9.206;2023-12-07T11:16:41;32.30;;;25.35;;
32393;SDS011;18853;45.426;9.206;2023-12-07T11:22:09;36.67;;;26.35;;
32393;SDS011;18853;45.426;9.206;2023-12-07T11:24:35;32.20;;;25.50;;
32393;SDS011;18853;45.426;9.206;2023-12-07T11:27:01;37.70;;;25.63;;
32393;SDS011;18853;45.426;9.206;2023-12-07T11:29:28;30.20;;;23.40;;
32393;SDS011;18853;45.426;9.206;2023-12-07T11:32:01;31.02;;;23.58;;
32393;SDS011;18853;45.426;9.206;2023-12-07T11:34:38;29.52;;;21.73;;
32393;SDS011;18853;45.426;9.206;2023-12-07T11:37:05;24.88;;;19.08;;
32393;SDS011;18853;45.426;9.206;2023-12-07T11:39:35;31.65;;;22.65;;
32393;SDS011;18853;45.426;9.206;2023-12-07T11:42:22;31.02;;;23.40;;
32393;SDS011;18853;45.426;9.206;2023-12-07T11:44:48;27.75;;;22.25;;
32393;SDS011;18853;45.426;9.206;2023-12-07T11:47:15;25.85;;;20.83;;
32393;SDS011;18853;45.426;9.206;2023-12-07T11:49:43;31.33;;;21.15;;
32393;SDS011;18853;45.426;9.206;2023-12-07T11:52:15;25.58;;;18.20;;
32393;SDS011;18853;45.426;9.206;2023-12-07T11:54:43;22.73;;;17.30;;
32393;SDS011;18853;45.426;9.206;2023-12-07T11:57:13;22.70;;;18.08;;
32393;SDS011;18853;45.426;9.206;2023-12-07T11:59:39;24.60;;;19.02;;
32393;SDS011;18853;45.426;9.206;2023-12-07T12:02:06;24.90;;;17.92;;
32393;SDS011;18853;45.426;9.206;2023-12-07T12:04:31;24.13;;;18.63;;
32393;SDS011;18853;45.426;9.206;2023-12-07T12:06:57;22.33;;;17.55;;
32393;SDS011;18853;45.426;9.206;2023-12-07T12:09:26;20.77;;;17.25;;
32393;SDS011;18853;45.426;9.206;2023-12-07T12:11:51;27.25;;;21.30;;
32393;SDS011;18853;45.426;9.206;2023-12-07T12:14:17;25.50;;;21.15;;
32393;SDS011;18853;45.426;9.206;2023-12-07T12:16:43;29.42;;;23.55;;
32393;SDS011;18853;45.426;9.206;2023-12-07T12:19:10;28.65;;;22.52;;
32393;SDS011;18853;45.426;9.206;2023-12-07T12:21:36;29.70;;;21.52;;
32393;SDS011;18853;45.426;9.206;2023-12-07T12:24:06;28.70;;;20.83;;
32393;SDS011;18853;45.426;9.206;2023-12-07T12:26:35;26.90;;;21.38;;
32393;SDS011;18853;45.426;9.206;2023-12-07T12:29:04;26.70;;;21.33;;
32393;SDS011;18853;45.426;9.206;2023-12-07T12:31:31;27.80;;;22.60;;
32393;SDS011;18853;45.426;9.206;2023-12-07T12:33:57;26.98;;;21.17;;
32393;SDS011;18853;45.426;9.206;2023-12-07T12:36:25;26.45;;;20.50;;
32393;SDS011;18853;45.426;9.206;2023-12-07T12:38:53;25.55;;;20.67;;
32393;SDS011;18853;45.426;9.206;2023-12-07T12:41:19;60.30;;;40.30;;
32393;SDS011;18853;45.426;9.206;2023-12-07T12:43:45;35.22;;;27.77;;
32393;SDS011;18853;45.426;9.206;2023-12-07T12:46:11;63.97;;;41.83;;
32393;SDS011;18853;45.426;9.206;2023-12-07T12:51:38;27.13;;;21.15;;
32393;SDS011;18853;45.426;9.206;2023-12-07T12:54:04;24.73;;;20.08;;
32393;SDS011;18853;45.426;9.206;2023-12-07T12:56:29;27.85;;;20.25;;
32393;SDS011;18853;45.426;9.206;2023-12-07T12:58:55;27.98;;;20.08;;
32393;SDS011;18853;45.426;9.206;2023-12-07T13:01:22;24.50;;;20.02;;
32393;SDS011;18853;45.426;9.206;2023-12-07T13:03:48;23.20;;;19.85;;
32393;SDS011;18853;45.426;9.206;2023-12-07T13:06:14;24.40;;;20.13;;
32393;SDS011;18853;45.426;9.206;2023-12-07T13:08:41;24.70;;;20.63;;
32393;SDS011;18853;45.426;9.206;2023-12-07T13:11:08;26.23;;;20.38;;
32393;SDS011;18853;45.426;9.206;2023-12-07T13:13:34;28.08;;;20.75;;
32393;SDS011;18853;45.426;9.206;2023-12-07T13:16:00;26.55;;;20.75;;
32393;SDS011;18853;45.426;9.206;2023-12-07T13:18:25;26.70;;;20.67;;
32393;SDS011;18853;45.426;9.206;2023-12-07T13:20:51;24.65;;;19.90;;
32393;SDS011;18853;45.426;9.206;2023-12-07T13:23:17;28.83;;;20.75;;
32393;SDS011;18853;45.426;9.206;2023-12-07T13:25:42;23.50;;;19.40;;
32393;SDS011;18853;45.426;9.206;2023-12-07T13:28:08;23.75;;;19.70;;
32393;SDS011;18853;45.426;9.206;2023-12-07T13:30:33;25.00;;;19.10;;
32393;SDS011;18853;45.426;9.206;2023-12-07T13:33:00;26.85;;;20.80;;
32393;SDS011;18853;45.426;9.206;2023-12-07T13:35:26;30.33;;;21.33;;
32393;SDS011;18853;45.426;9.206;2023-12-07T13:37:52;27.00;;;21.08;;
32393;SDS011;18853;45.426;9.206;2023-12-07T13:40:18;25.67;;;20.27;;
32393;SDS011;18853;45.426;9.206;2023-12-07T13:42:43;24.83;;;20.08;;
32393;SDS011;18853;45.426;9.206;2023-12-07T13:45:09;25.52;;;20.73;;
32393;SDS011;18853;45.426;9.206;2023-12-07T13:47:35;24.55;;;20.88;;
32393;SDS011;18853;45.426;9.206;2023-12-07T13:50:03;24.95;;;20.77;;
32393;SDS011;18853;45.426;9.206;2023-12-07T13:52:30;27.33;;;21.15;;
32393;SDS011;18853;45.426;9.206;2023-12-07T13:54:58;23.35;;;20.25;;
32393;SDS011;18853;45.426;9.206;2023-12-07T13:57:24;26.35;;;20.13;;
32393;SDS011;18853;45.426;9.206;2023-12-07T13:59:50;31.05;;;20.70;;
32393;SDS011;18853;45.426;9.206;2023-12-07T14:02:16;23.23;;;19.52;;
32393;SDS011;18853;45.426;9.206;2023-12-07T14:04:43;26.35;;;20.77;;
32393;SDS011;18853;45.426;9.206;2023-12-07T14:09:42;29.08;;;21.75;;
32393;SDS011;18853;45.426;9.206;2023-12-07T14:12:09;29.17;;;21.00;;
32393;SDS011;18853;45.426;9.206;2023-12-07T14:14:38;22.48;;;19.90;;
32393;SDS011;18853;45.426;9.206;2023-12-07T14:17:04;25.45;;;20.75;;
32393;SDS011;18853;45.426;9.206;2023-12-07T14:19:30;24.80;;;21.05;;
32393;SDS011;18853;45.426;9.206;2023-12-07T14:21:56;27.30;;;20.80;;
32393;SDS011;18853;45.426;9.206;2023-12-07T14:24:23;24.58;;;19.73;;
32393;SDS011;18853;45.426;9.206;2023-12-07T14:26:49;26.00;;;20.30;;
32393;SDS011;18853;45.426;9.206;2023-12-07T14:29:15;28.00;;;20.55;;